sensor_id;sensor_type;location;lat;lon;timestamp;pressure;altitude;pressure_sealevel;temperature;humidity
10006;BME280;5042;42.626;23.382;2023-04-03T00:01:25;93767.56;;;7.17;100.00
10006;BME280;5042;42.626;23.382;2023-04-03T00:03:52;93761.38;;;7.04;100.00
10006;BME280;5042;42.626;23.382;2023-04-03T00:06:19;93749.47;;;6.79;100.00
10006;BME280;5042;42.626;23.382;2023-04-03T00:08:47;93763.66;;;6.77;100.00
10006;BME280;5042;42.626;23.382;2023-04-03T00:11:14;93752.44;;;6.76;100.00
10006;BME280;5042;42.626;23.382;2023-04-03T00:13:42;93739.75;;;6.73;100.00
10006;BME280;5042;42.626;23.382;2023-04-03T00:16:09;93734.38;;;6.75;100.00
10006;BME280;5042;42.626;23.382;2023-04-03T00:18:36;93747.13;;;6.85;100.00
10006;BME280;5042;42.626;23.382;2023-04-03T00:21:04;93744.44;;;6.63;100.00
10006;BME280;5042;42.626;23.382;2023-04-03T00:23:32;93747.78;;;6.72;100.00
10006;BME280;5042;42.626;23.382;2023-04-03T00:26:00;93748.84;;;6.77;100.00
10006;BME280;5042;42.626;23.382;2023-04-03T00:28:27;93746.41;;;6.76;100.00
10006;BME280;5042;42.626;23.382;2023-04-03T00:30:54;93750.56;;;6.70;100.00
10006;BME280;5042;42.626;23.382;2023-04-03T00:33:20;93746.97;;;6.56;100.00
10006;BME280;5042;42.626;23.382;2023-04-03T00:35:47;93748.13;;;6.69;100.00
10006;BME280;5042;42.626;23.382;2023-04-03T00:38:14;93743.44;;;6.64;100.00
10006;BME280;5042;42.626;23.382;2023-04-03T00:40:43;93752.91;;;6.65;100.00
10006;BME280;5042;42.626;23.382;2023-04-03T00:43:14;93743.91;;;6.38;100.00
10006;BME280;5042;42.626;23.382;2023-04-03T00:45:42;93746.38;;;6.02;100.00
10006;BME280;5042;42.626;23.382;2023-04-03T00:48:12;93750.16;;;5.99;100.00
10006;BME280;5042;42.626;23.382;2023-04-03T00:50:41;93648.22;;;5.43;100.00
10006;BME280;5042;42.626;23.382;2023-04-03T00:53:11;93751.22;;;6.05;100.00
10006;BME280;5042;42.626;23.382;2023-04-03T00:55:39;93745.56;;;5.78;100.00
10006;BME280;5042;42.626;23.382;2023-04-03T00:58:06;93751.31;;;5.73;100.00
10006;BME280;5042;42.626;23.382;2023-04-03T01:00:36;93755.28;;;5.84;100.00
10006;BME280;5042;42.626;23.382;2023-04-03T01:03:03;93748.72;;;5.88;100.00
10006;BME280;5042;42.626;23.382;2023-04-03T01:05:30;93743.84;;;5.93;100.00
10006;BME280;5042;42.626;23.382;2023-04-03T01:07:57;93747.75;;;5.89;100.00
10006;BME280;5042;42.626;23.382;2023-04-03T01:10:24;93749.38;;;5.90;100.00
10006;BME280;5042;42.626;23.382;2023-04-03T01:12:52;93751.97;;;5.90;100.00
10006;BME280;5042;42.626;23.382;2023-04-03T01:15:23;93748.22;;;5.93;100.00
10006;BME280;5042;42.626;23.382;2023-04-03T01:17:53;93750.53;;;6.11;100.00
10006;BME280;5042;42.626;23.382;2023-04-03T01:23:35;93753.41;;;6.16;100.00
10006;BME280;5042;42.626;23.382;2023-04-03T01:26:04;93755.41;;;6.29;100.00
10006;BME280;5042;42.626;23.382;2023-04-03T01:28:33;93727.38;;;6.16;100.00
10006;BME280;5042;42.626;23.382;2023-04-03T01:31:10;93754.41;;;6.30;100.00
10006;BME280;5042;42.626;23.382;2023-04-03T01:33:40;93754.03;;;6.18;100.00
10006;BME280;5042;42.626;23.382;2023-04-03T01:36:07;93745.69;;;6.08;100.00
10006;BME280;5042;42.626;23.382;2023-04-03T01:38:34;93758.22;;;6.04;100.00
10006;BME280;5042;42.626;23.382;2023-04-03T01:41:01;93763.25;;;6.06;100.00
10006;BME280;5042;42.626;23.382;2023-04-03T01:43:28;93752.91;;;5.98;100.00
10006;BME280;5042;42.626;23.382;2023-04-03T01:45:55;93735.72;;;5.88;100.00
10006;BME280;5042;42.626;23.382;2023-04-03T01:48:21;93755.25;;;6.07;100.00
10006;BME280;5042;42.626;23.382;2023-04-03T01:50:49;93759.41;;;6.16;100.00
10006;BME280;5042;42.626;23.382;2023-04-03T01:53:16;93766.25;;;6.18;100.00
10006;BME280;5042;42.626;23.382;2023-04-03T01:55:43;93761.06;;;5.94;100.00
10006;BME280;5042;42.626;23.382;2023-04-03T01:58:10;93764.78;;;5.77;100.00
10006;BME280;5042;42.626;23.382;2023-04-03T02:00:37;93763.50;;;5.73;100.00
10006;BME280;5042;42.626;23.382;2023-04-03T02:03:04;93759.69;;;5.61;100.00
10006;BME280;5042;42.626;23.382;2023-04-03T02:05:32;93755.53;;;5.51;100.00
10006;BME280;5042;42.626;23.382;2023-04-03T02:08:00;93754.22;;;5.56;100.00
10006;BME280;5042;42.626;23.382;2023-04-03T02:10:27;93755.78;;;5.65;100.00
10006;BME280;5042;42.626;23.382;2023-04-03T02:12:54;93754.13;;;5.87;100.00
10006;BME280;5042;42.626;23.382;2023-04-03T02:15:21;93758.84;;;5.83;100.00
10006;BME280;5042;42.626;23.382;2023-04-03T02:17:47;93763.13;;;5.76;100.00
10006;BME280;5042;42.626;23.382;2023-04-03T02:20:14;93762.50;;;5.74;100.00
10006;BME280;5042;42.626;23.382;2023-04-03T02:22:41;93761.94;;;5.64;100.00
10006;BME280;5042;42.626;23.382;2023-04-03T02:25:10;93749.47;;;5.59;100.00
10006;BME280;5042;42.626;23.382;2023-04-03T02:27:37;93753.22;;;5.57;100.00
10006;BME280;5042;42.626;23.382;2023-04-03T02:30:05;93751.13;;;5.52;100.00
10006;BME280;5042;42.626;23.382;2023-04-03T02:32:32;93744.09;;;5.38;100.00
10006;BME280;5042;42.626;23.382;2023-04-03T02:34:58;93754.84;;;5.35;100.00
10006;BME280;5042;42.626;23.382;2023-04-03T02:37:25;93752.13;;;5.28;100.00
10006;BME280;5042;42.626;23.382;2023-04-03T02:39:52;93744.41;;;5.12;100.00
10006;BME280;5042;42.626;23.382;2023-04-03T02:42:20;93750.50;;;4.96;100.00
10006;BME280;5042;42.626;23.382;2023-04-03T02:44:47;93748.47;;;4.83;100.00
10006;BME280;5042;42.626;23.382;2023-04-03T02:47:14;93747.25;;;4.62;100.00
10006;BME280;5042;42.626;23.382;2023-04-03T02:49:41;93751.13;;;4.66;100.00
10006;BME280;5042;42.626;23.382;2023-04-03T02:52:09;93739.16;;;4.57;100.00
10006;BME280;5042;42.626;23.382;2023-04-03T02:54:35;93740.16;;;4.56;100.00
10006;BME280;5042;42.626;23.382;2023-04-03T02:57:02;93733.50;;;4.54;100.00
10006;BME280;5042;42.626;23.382;2023-04-03T02:59:30;93733.94;;;4.65;100.00
10006;BME280;5042;42.626;23.382;2023-04-03T03:01:57;93730.34;;;4.75;100.00
10006;BME280;5042;42.626;23.382;2023-04-03T03:04:24;93729.34;;;4.76;100.00
10006;BME280;5042;42.626;23.382;2023-04-03T03:06:50;93728.84;;;4.72;100.00
10006;BME280;5042;42.626;23.382;2023-04-03T03:09:17;93716.72;;;4.73;100.00
10006;BME280;5042;42.626;23.382;2023-04-03T03:11:44;93721.47;;;4.61;100.00
10006;BME280;5042;42.626;23.382;2023-04-03T03:14:11;93719.72;;;4.53;100.00
10006;BME280;5042;42.626;23.382;2023-04-03T03:16:39;93716.50;;;4.43;100.00
10006;BME280;5042;42.626;23.382;2023-04-03T03:19:06;93720.69;;;4.52;100.00
10006;BME280;5042;42.626;23.382;2023-04-03T03:21:33;93713.53;;;4.54;100.00
10006;BME280;5042;42.626;23.382;2023-04-03T03:23:59;93722.19;;;4.46;100.00
10006;BME280;5042;42.626;23.382;2023-04-03T03:26:26;93717.50;;;4.42;100.00
10006;BME280;5042;42.626;23.382;2023-04-03T03:28:53;93716.53;;;4.35;100.00
10006;BME280;5042;42.626;23.382;2023-04-03T03:31:20;93707.16;;;4.25;100.00
10006;BME280;5042;42.626;23.382;2023-04-03T03:33:48;93713.53;;;4.54;100.00
10006;BME280;5042;42.626;23.382;2023-04-03T03:36:15;93715.78;;;4.57;100.00
10006;BME280;5042;42.626;23.382;2023-04-03T03:38:41;93714.25;;;4.32;100.00
10006;BME280;5042;42.626;23.382;2023-04-03T03:41:08;93728.06;;;4.32;100.00
10006;BME280;5042;42.626;23.382;2023-04-03T03:43:35;93719.31;;;4.25;100.00
10006;BME280;5042;42.626;23.382;2023-04-03T03:46:02;93717.50;;;4.42;100.00
10006;BME280;5042;42.626;23.382;2023-04-03T03:48:28;93712.16;;;4.35;100.00
10006;BME280;5042;42.626;23.382;2023-04-03T03:50:57;93719.47;;;4.23;100.00
10006;BME280;5042;42.626;23.382;2023-04-03T03:53:23;93713.81;;;4.20;100.00
10006;BME280;5042;42.626;23.382;2023-04-03T03:55:50;93727.91;;;4.25;100.00
10006;BME280;5042;42.626;23.382;2023-04-03T03:58:17;93725.16;;;4.19;100.00
10006;BME280;5042;42.626;23.382;2023-04-03T04:00:44;93706.25;;;3.94;100.00
10006;BME280;5042;42.626;23.382;2023-04-03T04:03:11;93726.16;;;4.10;100.00
10006;BME280;5042;42.626;23.382;2023-04-03T04:05:38;93724.22;;;4.12;100.00
10006;BME280;5042;42.626;23.382;2023-04-03T04:08:07;93718.88;;;4.13;100.00
10006;BME280;5042;42.626;23.382;2023-04-03T04:10:34;93710.59;;;4.18;100.00
10006;BME280;5042;42.626;23.382;2023-04-03T04:13:00;93724.38;;;4.18;100.00
10006;BME280;5042;42.626;23.382;2023-04-03T04:15:27;93725.28;;;4.34;100.00
10006;BME280;5042;42.626;23.382;2023-04-03T04:17:54;93733.91;;;4.34;100.00
10006;BME280;5042;42.626;23.382;2023-04-03T04:20:22;93729.66;;;4.41;100.00
10006;BME280;5042;42.626;23.382;2023-04-03T04:22:49;93730.41;;;4.50;100.00
10006;BME280;5042;42.626;23.382;2023-04-03T04:25:17;93739.13;;;4.65;100.00
10006;BME280;5042;42.626;23.382;2023-04-03T04:27:44;93726.25;;;4.80;100.00
10006;BME280;5042;42.626;23.382;2023-04-03T04:30:13;93733.72;;;5.06;100.00
10006;BME280;5042;42.626;23.382;2023-04-03T04:32:39;93734.09;;;5.03;100.00
10006;BME280;5042;42.626;23.382;2023-04-03T04:35:07;93732.88;;;4.83;100.00
10006;BME280;5042;42.626;23.382;2023-04-03T04:37:34;93735.03;;;4.79;100.00
10006;BME280;5042;42.626;23.382;2023-04-03T04:40:00;93734.69;;;4.74;100.00
10006;BME280;5042;42.626;23.382;2023-04-03T04:42:29;93733.97;;;4.88;100.00
10006;BME280;5042;42.626;23.382;2023-04-03T04:44:56;93727.63;;;4.91;100.00
10006;BME280;5042;42.626;23.382;2023-04-03T04:47:22;93741.97;;;5.10;100.00
10006;BME280;5042;42.626;23.382;2023-04-03T04:49:49;93750.69;;;5.17;100.00
10006;BME280;5042;42.626;23.382;2023-04-03T04:52:16;93749.25;;;5.15;100.00
10006;BME280;5042;42.626;23.382;2023-04-03T04:54:42;93751.94;;;4.98;100.00
10006;BME280;5042;42.626;23.382;2023-04-03T04:57:09;93754.22;;;5.01;100.00
10006;BME280;5042;42.626;23.382;2023-04-03T04:59:38;93771.28;;;4.96;100.00
10006;BME280;5042;42.626;23.382;2023-04-03T05:02:04;93771.53;;;5.09;100.00
10006;BME280;5042;42.626;23.382;2023-04-03T05:04:31;93773.69;;;5.05;100.00
10006;BME280;5042;42.626;23.382;2023-04-03T05:06:58;93788.28;;;5.06;100.00
10006;BME280;5042;42.626;23.382;2023-04-03T05:09:25;93781.22;;;4.92;100.00
10006;BME280;5042;42.626;23.382;2023-04-03T05:11:52;93733.31;;;4.55;100.00
10006;BME280;5042;42.626;23.382;2023-04-03T05:14:19;93796.38;;;5.12;100.00
10006;BME280;5042;42.626;23.382;2023-04-03T05:16:48;93781.06;;;5.25;100.00
10006;BME280;5042;42.626;23.382;2023-04-03T05:19:18;93786.47;;;5.38;100.00
10006;BME280;5042;42.626;23.382;2023-04-03T05:21:45;93782.06;;;5.47;100.00
10006;BME280;5042;42.626;23.382;2023-04-03T05:24:11;93781.66;;;5.58;100.00
10006;BME280;5042;42.626;23.382;2023-04-03T05:26:38;93770.31;;;5.74;100.00
10006;BME280;5042;42.626;23.382;2023-04-03T05:29:05;93780.84;;;6.04;100.00
10006;BME280;5042;42.626;23.382;2023-04-03T05:31:32;93781.13;;;6.09;100.00
10006;BME280;5042;42.626;23.382;2023-04-03T05:34:00;93787.88;;;6.33;100.00
10006;BME280;5042;42.626;23.382;2023-04-03T05:36:27;93608.97;;;5.15;100.00
10006;BME280;5042;42.626;23.382;2023-04-03T05:38:54;93766.16;;;6.41;100.00
10006;BME280;5042;42.626;23.382;2023-04-03T05:41:22;93767.91;;;6.48;100.00
10006;BME280;5042;42.626;23.382;2023-04-03T05:43:49;93770.66;;;6.47;100.00
10006;BME280;5042;42.626;23.382;2023-04-03T05:46:17;93774.00;;;6.55;100.00
10006;BME280;5042;42.626;23.382;2023-04-03T05:48:44;93767.00;;;6.56;100.00
10006;BME280;5042;42.626;23.382;2023-04-03T05:51:15;93767.78;;;6.71;100.00
10006;BME280;5042;42.626;23.382;2023-04-03T05:53:43;93760.16;;;6.70;100.00
10006;BME280;5042;42.626;23.382;2023-04-03T05:56:11;93733.13;;;6.56;100.00
10006;BME280;5042;42.626;23.382;2023-04-03T05:58:37;93756.13;;;6.67;100.00
10006;BME280;5042;42.626;23.382;2023-04-03T06:01:05;93744.88;;;6.67;100.00
10006;BME280;5042;42.626;23.382;2023-04-03T06:03:32;93698.66;;;6.54;100.00
10006;BME280;5042;42.626;23.382;2023-04-03T06:05:59;93753.22;;;6.92;100.00
10006;BME280;5042;42.626;23.382;2023-04-03T06:08:27;93753.75;;;7.02;100.00
10006;BME280;5042;42.626;23.382;2023-04-03T06:10:54;93747.69;;;7.16;100.00
10006;BME280;5042;42.626;23.382;2023-04-03T06:13:21;93750.06;;;7.33;100.00
10006;BME280;5042;42.626;23.382;2023-04-03T06:15:49;93756.72;;;7.57;100.00
10006;BME280;5042;42.626;23.382;2023-04-03T06:18:16;93749.50;;;7.74;100.00
10006;BME280;5042;42.626;23.382;2023-04-03T06:20:42;93743.25;;;7.75;100.00
10006;BME280;5042;42.626;23.382;2023-04-03T06:23:09;93747.19;;;7.85;100.00
10006;BME280;5042;42.626;23.382;2023-04-03T06:25:38;93747.16;;;8.07;100.00
10006;BME280;5042;42.626;23.382;2023-04-03T06:28:06;93764.56;;;8.28;100.00
10006;BME280;5042;42.626;23.382;2023-04-03T06:30:34;93766.31;;;8.21;100.00
10006;BME280;5042;42.626;23.382;2023-04-03T06:33:01;93765.06;;;8.38;100.00
10006;BME280;5042;42.626;23.382;2023-04-03T06:35:28;93768.34;;;8.47;100.00
10006;BME280;5042;42.626;23.382;2023-04-03T06:37:56;93745.44;;;8.42;100.00
10006;BME280;5042;42.626;23.382;2023-04-03T06:40:24;93770.91;;;8.75;100.00
10006;BME280;5042;42.626;23.382;2023-04-03T06:42:55;93774.63;;;8.87;100.00
10006;BME280;5042;42.626;23.382;2023-04-03T06:45:22;93776.84;;;8.90;100.00
10006;BME280;5042;42.626;23.382;2023-04-03T06:47:50;93781.81;;;8.79;100.00
10006;BME280;5042;42.626;23.382;2023-04-03T06:50:17;93763.13;;;8.82;100.00
10006;BME280;5042;42.626;23.382;2023-04-03T06:52:44;93771.75;;;8.82;100.00
10006;BME280;5042;42.626;23.382;2023-04-03T06:55:11;93773.63;;;8.88;100.00
10006;BME280;5042;42.626;23.382;2023-04-03T06:57:37;93773.44;;;8.90;100.00
10006;BME280;5042;42.626;23.382;2023-04-03T07:00:07;93779.88;;;8.94;100.00
10006;BME280;5042;42.626;23.382;2023-04-03T07:02:34;93764.63;;;8.98;100.00
10006;BME280;5042;42.626;23.382;2023-04-03T07:05:01;93770.13;;;9.16;100.00
10006;BME280;5042;42.626;23.382;2023-04-03T07:07:28;93770.81;;;9.38;100.00
10006;BME280;5042;42.626;23.382;2023-04-03T07:09:55;93771.28;;;9.62;100.00
10006;BME280;5042;42.626;23.382;2023-04-03T07:12:21;93759.00;;;9.82;100.00
10006;BME280;5042;42.626;23.382;2023-04-03T07:14:48;93754.59;;;9.83;100.00
10006;BME280;5042;42.626;23.382;2023-04-03T07:17:16;93753.81;;;10.02;100.00
10006;BME280;5042;42.626;23.382;2023-04-03T07:19:43;93752.81;;;10.10;100.00
10006;BME280;5042;42.626;23.382;2023-04-03T07:22:10;93746.16;;;10.07;100.00
10006;BME280;5042;42.626;23.382;2023-04-03T07:24:37;93745.13;;;10.15;100.00
10006;BME280;5042;42.626;23.382;2023-04-03T07:27:04;93746.56;;;10.24;100.00
10006;BME280;5042;42.626;23.382;2023-04-03T07:29:31;93693.97;;;10.06;100.00
10006;BME280;5042;42.626;23.382;2023-04-03T07:31:58;93749.59;;;10.54;100.00
10006;BME280;5042;42.626;23.382;2023-04-03T07:34:26;93729.03;;;10.51;100.00
10006;BME280;5042;42.626;23.382;2023-04-03T07:36:53;93713.13;;;10.33;100.00
10006;BME280;5042;42.626;23.382;2023-04-03T07:39:20;93738.31;;;10.34;100.00
10006;BME280;5042;42.626;23.382;2023-04-03T07:41:47;93721.56;;;10.22;100.00
10006;BME280;5042;42.626;23.382;2023-04-03T07:44:14;93735.06;;;10.45;100.00
10006;BME280;5042;42.626;23.382;2023-04-03T07:46:40;93734.84;;;10.53;100.00
10006;BME280;5042;42.626;23.382;2023-04-03T07:49:07;93739.03;;;10.81;100.00
10006;BME280;5042;42.626;23.382;2023-04-03T07:51:36;93741.03;;;10.92;100.00
10006;BME280;5042;42.626;23.382;2023-04-03T07:54:03;93737.16;;;11.01;100.00
10006;BME280;5042;42.626;23.382;2023-04-03T07:56:30;93730.50;;;10.99;100.00
10006;BME280;5042;42.626;23.382;2023-04-03T07:58:57;93738.13;;;11.07;100.00
10006;BME280;5042;42.626;23.382;2023-04-03T08:01:23;93732.41;;;10.72;100.00
10006;BME280;5042;42.626;23.382;2023-04-03T08:03:50;93732.22;;;10.53;100.00
10006;BME280;5042;42.626;23.382;2023-04-03T08:06:17;93684.31;;;9.93;100.00
10006;BME280;5042;42.626;23.382;2023-04-03T08:08:45;93736.09;;;10.11;100.00
10006;BME280;5042;42.626;23.382;2023-04-03T08:11:12;93735.47;;;10.15;100.00
10006;BME280;5042;42.626;23.382;2023-04-03T08:13:39;93731.88;;;10.30;100.00
10006;BME280;5042;42.626;23.382;2023-04-03T08:16:08;93717.75;;;10.24;100.00
10006;BME280;5042;42.626;23.382;2023-04-03T08:18:35;93725.41;;;10.12;100.00
10006;BME280;5042;42.626;23.382;2023-04-03T08:21:05;93729.00;;;10.25;100.00
10006;BME280;5042;42.626;23.382;2023-04-03T08:23:32;93719.38;;;10.25;100.00
10006;BME280;5042;42.626;23.382;2023-04-03T08:26:05;93711.69;;;10.24;100.00
10006;BME280;5042;42.626;23.382;2023-04-03T08:28:32;93716.94;;;10.17;100.00
10006;BME280;5042;42.626;23.382;2023-04-03T08:31:02;93721.78;;;10.33;100.00
10006;BME280;5042;42.626;23.382;2023-04-03T08:33:29;93716.53;;;10.40;100.00
10006;BME280;5042;42.626;23.382;2023-04-03T08:35:56;93711.47;;;10.58;100.00
10006;BME280;5042;42.626;23.382;2023-04-03T08:38:23;93709.06;;;10.57;100.00
10006;BME280;5042;42.626;23.382;2023-04-03T08:41:02;93707.03;;;10.66;100.00
10006;BME280;5042;42.626;23.382;2023-04-03T08:43:35;93693.91;;;10.66;100.00
10006;BME280;5042;42.626;23.382;2023-04-03T08:46:05;93607.38;;;10.01;100.00
10006;BME280;5042;42.626;23.382;2023-04-03T08:48:38;93695.53;;;10.60;100.00
10006;BME280;5042;42.626;23.382;2023-04-03T08:51:11;93699.94;;;10.73;100.00
10006;BME280;5042;42.626;23.382;2023-04-03T08:53:42;93694.63;;;10.93;100.00
10006;BME280;5042;42.626;23.382;2023-04-03T08:56:13;93697.41;;;11.04;100.00
10006;BME280;5042;42.626;23.382;2023-04-03T08:58:47;93691.03;;;11.25;100.00
10006;BME280;5042;42.626;23.382;2023-04-03T09:01:19;93691.56;;;11.41;100.00
10006;BME280;5042;42.626;23.382;2023-04-03T09:03:47;93672.97;;;11.42;100.00
10006;BME280;5042;42.626;23.382;2023-04-03T09:06:15;93671.97;;;11.43;100.00
10006;BME280;5042;42.626;23.382;2023-04-03T09:08:45;93676.69;;;11.60;100.00
10006;BME280;5042;42.626;23.382;2023-04-03T09:11:21;93674.34;;;11.77;100.00
10006;BME280;5042;42.626;23.382;2023-04-03T09:13:56;93677.38;;;11.80;100.00
10006;BME280;5042;42.626;23.382;2023-04-03T09:16:34;93662.22;;;11.82;100.00
10006;BME280;5042;42.626;23.382;2023-04-03T09:19:12;93665.53;;;11.71;100.00
10006;BME280;5042;42.626;23.382;2023-04-03T09:21:42;93666.66;;;11.82;100.00
10006;BME280;5042;42.626;23.382;2023-04-03T09:24:10;93654.03;;;11.97;100.00
10006;BME280;5042;42.626;23.382;2023-04-03T09:26:43;93654.44;;;12.19;100.00
10006;BME280;5042;42.626;23.382;2023-04-03T09:29:15;93633.16;;;12.27;100.00
10006;BME280;5042;42.626;23.382;2023-04-03T09:31:45;93664.88;;;12.69;100.00
10006;BME280;5042;42.626;23.382;2023-04-03T09:34:19;93668.81;;;12.60;100.00
10006;BME280;5042;42.626;23.382;2023-04-03T09:36:48;93642.94;;;12.57;100.00
10006;BME280;5042;42.626;23.382;2023-04-03T09:39:18;93649.81;;;12.58;100.00
10006;BME280;5042;42.626;23.382;2023-04-03T09:41:58;93651.84;;;12.56;98.92
10006;BME280;5042;42.626;23.382;2023-04-03T09:44:27;93656.53;;;12.54;87.33
10006;BME280;5042;42.626;23.382;2023-04-03T09:46:54;93657.09;;;12.38;93.70
10006;BME280;5042;42.626;23.382;2023-04-03T09:49:21;93653.59;;;12.25;96.15
10006;BME280;5042;42.626;23.382;2023-04-03T09:51:48;93646.56;;;12.19;95.66
10006;BME280;5042;42.626;23.382;2023-04-03T09:54:35;93607.03;;;11.89;95.23
10006;BME280;5042;42.626;23.382;2023-04-03T09:57:10;93634.88;;;12.15;98.89
10006;BME280;5042;42.626;23.382;2023-04-03T09:59:44;93617.56;;;12.07;97.38
10006;BME280;5042;42.626;23.382;2023-04-03T10:02:36;93647.16;;;12.40;94.07
10006;BME280;5042;42.626;23.382;2023-04-03T10:05:25;93644.75;;;12.38;90.20
10006;BME280;5042;42.626;23.382;2023-04-03T10:08:07;93636.66;;;12.40;94.63
10006;BME280;5042;42.626;23.382;2023-04-03T10:10:34;93643.03;;;12.50;92.70
10006;BME280;5042;42.626;23.382;2023-04-03T10:13:09;93645.56;;;12.57;92.70
10006;BME280;5042;42.626;23.382;2023-04-03T10:15:41;93631.41;;;12.58;89.16
10006;BME280;5042;42.626;23.382;2023-04-03T10:18:24;93643.22;;;12.49;86.59
10006;BME280;5042;42.626;23.382;2023-04-03T10:20:59;93647.09;;;12.46;89.13
10006;BME280;5042;42.626;23.382;2023-04-03T10:23:33;93639.38;;;12.51;88.71
10006;BME280;5042;42.626;23.382;2023-04-03T10:26:12;93626.63;;;12.67;94.72
10006;BME280;5042;42.626;23.382;2023-04-03T10:28:48;93606.13;;;12.57;90.13
10006;BME280;5042;42.626;23.382;2023-04-03T10:31:25;93625.25;;;12.83;92.68
10006;BME280;5042;42.626;23.382;2023-04-03T10:34:02;93624.78;;;12.86;89.81
10006;BME280;5042;42.626;23.382;2023-04-03T10:36:37;93601.16;;;12.67;90.59
10006;BME280;5042;42.626;23.382;2023-04-03T10:39:22;93617.53;;;12.69;88.68
10006;BME280;5042;42.626;23.382;2023-04-03T10:42:00;93608.41;;;12.72;91.65
10006;BME280;5042;42.626;23.382;2023-04-03T10:44:37;93575.75;;;12.43;90.32
10006;BME280;5042;42.626;23.382;2023-04-03T10:47:11;93602.84;;;12.62;92.67
10006;BME280;5042;42.626;23.382;2023-04-03T10:49:49;93608.16;;;12.55;94.27
10006;BME280;5042;42.626;23.382;2023-04-03T10:52:25;93597.22;;;12.58;92.78
10006;BME280;5042;42.626;23.382;2023-04-03T10:55:02;93602.63;;;12.63;96.29
10006;BME280;5042;42.626;23.382;2023-04-03T10:57:34;93598.38;;;12.62;100.00
10006;BME280;5042;42.626;23.382;2023-04-03T11:00:04;93597.66;;;12.55;94.84
10006;BME280;5042;42.626;23.382;2023-04-03T11:02:37;93606.38;;;12.56;95.75
10006;BME280;5042;42.626;23.382;2023-04-03T11:05:15;93592.28;;;12.32;100.00
10006;BME280;5042;42.626;23.382;2023-04-03T11:07:47;93612.97;;;12.21;100.00
10006;BME280;5042;42.626;23.382;2023-04-03T11:10:23;93595.16;;;11.80;100.00
10006;BME280;5042;42.626;23.382;2023-04-03T11:12:52;93612.16;;;11.77;100.00
10006;BME280;5042;42.626;23.382;2023-04-03T11:15:23;93614.72;;;11.59;100.00
10006;BME280;5042;42.626;23.382;2023-04-03T11:17:54;93589.97;;;11.23;100.00
10006;BME280;5042;42.626;23.382;2023-04-03T11:20:26;93591.22;;;11.14;100.00
10006;BME280;5042;42.626;23.382;2023-04-03T11:22:57;93602.03;;;10.92;100.00
10006;BME280;5042;42.626;23.382;2023-04-03T11:25:26;93591.00;;;10.83;100.00
10006;BME280;5042;42.626;23.382;2023-04-03T11:27:58;93600.88;;;10.81;100.00
10006;BME280;5042;42.626;23.382;2023-04-03T11:30:29;93606.28;;;10.87;100.00
10006;BME280;5042;42.626;23.382;2023-04-03T11:33:07;93606.91;;;10.89;100.00
10006;BME280;5042;42.626;23.382;2023-04-03T11:35:37;93602.69;;;10.81;100.00
10006;BME280;5042;42.626;23.382;2023-04-03T11:38:17;93583.59;;;10.67;100.00
10006;BME280;5042;42.626;23.382;2023-04-03T11:40:46;93588.09;;;10.53;100.00
10006;BME280;5042;42.626;23.382;2023-04-03T11:43:22;93606.06;;;10.56;100.00
10006;BME280;5042;42.626;23.382;2023-04-03T11:45:54;93600.41;;;10.46;100.00
10006;BME280;5042;42.626;23.382;2023-04-03T11:48:44;93608.09;;;10.41;100.00
10006;BME280;5042;42.626;23.382;2023-04-03T11:51:44;93616.63;;;10.30;100.00
10006;BME280;5042;42.626;23.382;2023-04-03T11:54:43;93611.38;;;10.23;100.00
10006;BME280;5042;42.626;23.382;2023-04-03T11:57:44;93617.59;;;10.22;100.00
10006;BME280;5042;42.626;23.382;2023-04-03T12:06:47;93626.13;;;9.97;100.00
10006;BME280;5042;42.626;23.382;2023-04-03T12:09:23;93610.59;;;9.96;100.00
10006;BME280;5042;42.626;23.382;2023-04-03T12:11:51;93627.28;;;10.15;100.00
10006;BME280;5042;42.626;23.382;2023-04-03T12:14:22;93613.81;;;10.11;100.00
10006;BME280;5042;42.626;23.382;2023-04-03T12:16:49;93618.44;;;10.16;100.00
10006;BME280;5042;42.626;23.382;2023-04-03T12:19:36;93614.19;;;10.22;100.00
10006;BME280;5042;42.626;23.382;2023-04-03T12:22:16;93616.97;;;10.27;100.00
10006;BME280;5042;42.626;23.382;2023-04-03T12:24:47;93575.94;;;10.01;100.00
10006;BME280;5042;42.626;23.382;2023-04-03T12:27:23;93595.69;;;10.10;100.00
10006;BME280;5042;42.626;23.382;2023-04-03T12:29:55;93612.75;;;10.26;100.00
10006;BME280;5042;42.626;23.382;2023-04-03T12:32:35;93612.97;;;10.17;100.00
10006;BME280;5042;42.626;23.382;2023-04-03T12:35:20;93603.72;;;10.15;100.00
10006;BME280;5042;42.626;23.382;2023-04-03T12:37:59;93592.88;;;9.98;100.00
10006;BME280;5042;42.626;23.382;2023-04-03T12:40:37;93591.28;;;9.90;100.00
10006;BME280;5042;42.626;23.382;2023-04-03T12:43:28;93582.03;;;9.74;100.00
10006;BME280;5042;42.626;23.382;2023-04-03T12:46:02;93572.00;;;9.58;100.00
10006;BME280;5042;42.626;23.382;2023-04-03T12:48:31;93567.97;;;9.62;100.00
10006;BME280;5042;42.626;23.382;2023-04-03T12:51:00;93564.34;;;9.37;100.00
10006;BME280;5042;42.626;23.382;2023-04-03T12:53:29;93567.97;;;9.29;100.00
10006;BME280;5042;42.626;23.382;2023-04-03T12:56:21;93570.19;;;9.25;100.00
10006;BME280;5042;42.626;23.382;2023-04-03T12:58:49;93568.78;;;9.23;100.00
10006;BME280;5042;42.626;23.382;2023-04-03T13:01:17;93493.53;;;8.65;100.00
10006;BME280;5042;42.626;23.382;2023-04-03T13:03:47;93566.34;;;9.08;100.00
10006;BME280;5042;42.626;23.382;2023-04-03T13:06:18;93569.56;;;9.10;100.00
10006;BME280;5042;42.626;23.382;2023-04-03T13:08:51;93547.00;;;8.82;100.00
10006;BME280;5042;42.626;23.382;2023-04-03T13:11:19;93576.81;;;9.15;100.00
10006;BME280;5042;42.626;23.382;2023-04-03T13:13:58;93558.09;;;9.11;100.00
10006;BME280;5042;42.626;23.382;2023-04-03T13:16:25;93561.53;;;9.18;100.00
10006;BME280;5042;42.626;23.382;2023-04-03T13:18:53;93574.81;;;9.10;100.00
10006;BME280;5042;42.626;23.382;2023-04-03T13:21:23;93570.78;;;9.14;100.00